createdAt,value
2022-09-12T00:01:26.660Z,19.40
2022-09-12T00:03:58.476Z,19.40
2022-09-12T00:06:32.156Z,19.30
2022-09-12T00:09:02.821Z,19.30
2022-09-12T00:11:29.916Z,19.40
2022-09-12T00:13:59.078Z,19.30
2022-09-12T00:16:28.059Z,19.30
2022-09-12T00:18:54.736Z,19.30
2022-09-12T00:21:22.780Z,19.40
2022-09-12T00:23:50.445Z,19.30
2022-09-12T00:26:18.490Z,19.30
2022-09-12T00:28:46.083Z,19.30
2022-09-12T00:31:22.057Z,19.30
2022-09-12T00:33:48.679Z,19.30
2022-09-12T00:36:18.967Z,19.30
2022-09-12T00:38:46.683Z,19.30
2022-09-12T00:41:32.866Z,19.30
2022-09-12T00:44:09.999Z,19.30
2022-09-12T00:46:45.873Z,19.20
2022-09-12T00:49:23.560Z,19.20
2022-09-12T00:52:03.464Z,19.30
2022-09-12T00:54:44.904Z,19.30
2022-09-12T00:57:15.042Z,19.30
2022-09-12T00:59:54.496Z,19.20
2022-09-12T01:02:21.475Z,19.20
2022-09-12T01:04:48.401Z,19.30
2022-09-12T01:07:15.331Z,19.30
2022-09-12T01:09:44.100Z,19.20
2022-09-12T01:12:12.649Z,19.20
2022-09-12T01:14:39.713Z,19.20
2022-09-12T01:17:06.472Z,19.10
2022-09-12T01:19:52.171Z,19.10
2022-09-12T01:22:34.767Z,19.10
2022-09-12T01:25:28.436Z,19.10
2022-09-12T01:28:19.502Z,19.10
2022-09-12T01:31:00.845Z,19.10
2022-09-12T01:33:36.653Z,19.10
2022-09-12T01:36:38.052Z,19.00
2022-09-12T01:39:11.151Z,19.00
2022-09-12T01:42:07.940Z,19.00
2022-09-12T01:44:55.641Z,19.10
2022-09-12T01:47:38.728Z,19.20
2022-09-12T01:50:16.264Z,19.20
2022-09-12T01:52:56.003Z,19.20
2022-09-12T01:55:32.418Z,19.10
2022-09-12T01:58:14.743Z,19.10
2022-09-12T02:00:55.411Z,19.10
2022-09-12T02:03:31.165Z,19.00
2022-09-12T02:06:06.955Z,19.00
2022-09-12T02:08:40.581Z,19.00
2022-09-12T02:11:09.891Z,19.10
2022-09-12T02:14:00.402Z,19.00
2022-09-12T02:16:51.006Z,19.00
2022-09-12T02:19:20.696Z,18.90
2022-09-12T02:21:54.384Z,18.90
2022-09-12T02:24:25.586Z,18.90
2022-09-12T02:26:59.617Z,18.90
2022-09-12T02:29:26.175Z,18.90
2022-09-12T02:32:04.587Z,18.90
2022-09-12T02:34:31.094Z,18.80
2022-09-12T02:37:18.894Z,18.80
2022-09-12T02:39:45.784Z,18.80
2022-09-12T02:42:13.322Z,18.90
2022-09-12T02:44:40.282Z,18.80
2022-09-12T02:47:15.390Z,18.90
2022-09-12T02:49:41.997Z,18.90
2022-09-12T02:52:08.651Z,18.90
2022-09-12T02:54:35.927Z,18.90
2022-09-12T02:57:02.511Z,18.90
2022-09-12T02:59:29.251Z,18.80
2022-09-12T03:02:07.616Z,18.80
2022-09-12T03:05:08.606Z,18.70
2022-09-12T03:07:57.072Z,18.70
2022-09-12T03:10:51.928Z,18.90
2022-09-12T03:13:32.939Z,19.00
2022-09-12T03:16:02.219Z,19.00
2022-09-12T03:18:51.742Z,18.90
2022-09-12T03:21:28.695Z,18.90
2022-09-12T03:24:15.269Z,18.80
2022-09-12T03:26:48.026Z,18.90
2022-09-12T03:29:15.585Z,19.00
2022-09-12T03:32:08.607Z,19.00
2022-09-12T03:34:35.376Z,18.90
2022-09-12T03:37:02.260Z,18.90
2022-09-12T03:39:29.068Z,18.80
2022-09-12T03:41:56.413Z,18.90
2022-09-12T03:44:23.687Z,18.90
2022-09-12T03:46:50.659Z,19.00
2022-09-12T03:49:17.547Z,19.00
2022-09-12T03:51:44.211Z,18.90
2022-09-12T03:54:11.140Z,19.00
2022-09-12T03:56:38.077Z,19.00
2022-09-12T03:59:06.452Z,18.90
2022-09-12T04:01:33.734Z,18.90
2022-09-12T04:04:00.689Z,18.90
2022-09-12T04:06:27.360Z,18.90
2022-09-12T04:08:55.371Z,18.90
2022-09-12T04:11:22.739Z,18.90
2022-09-12T04:13:49.642Z,18.90
2022-09-12T04:16:17.720Z,18.90
2022-09-12T04:18:45.165Z,18.90
2022-09-12T04:21:15.596Z,19.00
2022-09-12T04:23:42.204Z,19.00
2022-09-12T04:26:09.580Z,18.90
2022-09-12T04:28:38.071Z,18.90
2022-09-12T04:31:23.531Z,18.90
2022-09-12T04:33:57.977Z,18.90
2022-09-12T04:36:25.500Z,18.90
2022-09-12T04:38:52.854Z,18.80
2022-09-12T04:41:21.479Z,18.80
2022-09-12T04:43:51.697Z,18.90
2022-09-12T04:46:20.281Z,18.80
2022-09-12T04:48:47.914Z,18.80
2022-09-12T04:51:18.769Z,18.80
2022-09-12T04:53:49.671Z,18.80
2022-09-12T04:56:16.975Z,18.80
2022-09-12T04:58:43.619Z,18.80
2022-09-12T05:01:13.662Z,18.80
2022-09-12T05:03:43.380Z,18.80
2022-09-12T05:06:12.347Z,18.80
2022-09-12T05:08:39.144Z,18.80
2022-09-12T05:11:21.576Z,18.80
2022-09-12T05:13:51.864Z,18.80
2022-09-12T05:16:20.216Z,18.80
2022-09-12T05:18:47.581Z,18.80
2022-09-12T05:21:16.871Z,18.80
2022-09-12T05:23:43.898Z,18.80
2022-09-12T05:26:15.548Z,18.80
2022-09-12T05:28:42.915Z,18.70
2022-09-12T05:31:18.912Z,18.70
2022-09-12T05:33:48.932Z,18.70
2022-09-12T05:36:21.522Z,18.70
2022-09-12T05:38:48.437Z,18.80
2022-09-12T05:41:24.883Z,18.80
2022-09-12T05:43:56.857Z,18.70
2022-09-12T05:46:26.076Z,18.80
2022-09-12T05:48:56.452Z,18.80
2022-09-12T05:51:26.625Z,18.80
2022-09-12T05:53:56.640Z,18.80
2022-09-12T05:56:25.895Z,18.70
2022-09-12T05:59:04.088Z,18.70
2022-09-12T06:01:33.296Z,18.70
2022-09-12T06:04:02.023Z,18.70
2022-09-12T06:06:30.043Z,18.70
2022-09-12T06:08:59.680Z,18.70
2022-09-12T06:11:29.023Z,18.70
2022-09-12T06:13:57.440Z,18.70
2022-09-12T06:16:27.378Z,18.70
2022-09-12T06:18:56.165Z,18.80
2022-09-12T06:21:24.220Z,18.70
2022-09-12T06:23:51.189Z,18.70
2022-09-12T06:26:21.395Z,18.70
2022-09-12T06:28:48.151Z,18.60
2022-09-12T06:31:18.386Z,18.60
2022-09-12T06:33:46.910Z,18.60
2022-09-12T06:36:16.487Z,18.70
2022-09-12T06:38:43.191Z,18.70
2022-09-12T06:41:14.338Z,18.70
2022-09-12T06:43:41.968Z,18.70
2022-09-12T06:46:10.082Z,18.80
2022-09-12T06:48:41.597Z,18.70
2022-09-12T06:51:14.773Z,18.70
2022-09-12T06:53:44.221Z,18.70
2022-09-12T06:56:16.117Z,18.70
2022-09-12T06:58:43.441Z,18.80
2022-09-12T07:01:12.539Z,18.80
2022-09-12T07:03:40.039Z,18.80
2022-09-12T07:06:14.173Z,18.80
2022-09-12T07:08:41.108Z,18.80
2022-09-12T07:11:12.616Z,18.90
2022-09-12T07:13:40.863Z,18.90
2022-09-12T07:16:08.184Z,18.90
2022-09-12T07:18:35.234Z,18.90
2022-09-12T07:21:02.830Z,18.90
2022-09-12T07:23:30.280Z,18.90
2022-09-12T07:25:58.355Z,18.90
2022-09-12T07:28:30.099Z,19.00
2022-09-12T07:30:56.772Z,19.10
2022-09-12T07:33:26.841Z,19.10
2022-09-12T07:35:54.360Z,19.20
2022-09-12T07:38:21.952Z,19.20
2022-09-12T07:40:48.644Z,19.10
2022-09-12T07:43:15.379Z,19.10
2022-09-12T07:45:42.596Z,19.20
2022-09-12T07:48:09.779Z,19.20
2022-09-12T07:50:36.829Z,19.30
2022-09-12T07:53:04.555Z,19.30
2022-09-12T07:55:31.822Z,19.30
2022-09-12T07:57:58.668Z,19.30
2022-09-12T08:00:25.541Z,19.30
2022-09-12T08:02:53.843Z,19.40
2022-09-12T08:05:20.897Z,19.50
2022-09-12T08:07:47.690Z,19.50
2022-09-12T08:10:14.423Z,19.40
2022-09-12T08:12:41.034Z,19.30
2022-09-12T08:15:08.518Z,19.40
2022-09-12T08:17:35.072Z,19.40
2022-09-12T08:20:02.157Z,19.50
2022-09-12T08:22:30.898Z,19.50
2022-09-12T08:24:57.480Z,19.40
2022-09-12T08:27:24.103Z,19.40
2022-09-12T08:29:50.693Z,19.50
2022-09-12T08:32:17.257Z,19.60
2022-09-12T08:34:43.832Z,19.60
2022-09-12T08:37:10.389Z,19.70
2022-09-12T08:39:36.985Z,19.70
2022-09-12T08:42:05.785Z,19.70
2022-09-12T08:45:00.789Z,19.70
2022-09-12T08:47:29.035Z,19.60
2022-09-12T08:50:11.477Z,19.60
2022-09-12T08:52:51.787Z,19.60
2022-09-12T08:55:27.352Z,19.70
2022-09-12T08:57:54.486Z,19.70
2022-09-12T09:00:21.561Z,19.70
2022-09-12T09:03:13.409Z,19.70
2022-09-12T09:05:50.020Z,19.70
2022-09-12T09:08:30.999Z,19.70
2022-09-12T09:11:08.639Z,19.70
2022-09-12T09:14:21.557Z,19.80
2022-09-12T09:16:50.793Z,19.80
2022-09-12T09:19:23.757Z,19.90
2022-09-12T09:22:12.211Z,19.90
2022-09-12T09:24:45.600Z,20.00
2022-09-12T09:27:41.488Z,20.00
2022-09-12T09:30:15.391Z,20.10
2022-09-12T09:32:43.732Z,20.10
2022-09-12T09:35:38.996Z,20.20
2022-09-12T09:38:25.392Z,20.10
2022-09-12T09:41:20.175Z,20.10
2022-09-12T09:43:47.154Z,20.20
2022-09-12T09:46:14.147Z,20.20
2022-09-12T09:48:45.456Z,20.30
2022-09-12T09:51:13.896Z,20.30
2022-09-12T09:53:47.692Z,20.40
2022-09-12T09:56:34.680Z,20.40
2022-09-12T09:59:19.316Z,20.30
2022-09-12T10:01:58.036Z,20.20
2022-09-12T10:04:31.362Z,20.30
2022-09-12T10:07:01.054Z,20.30
2022-09-12T10:09:32.984Z,20.20
2022-09-12T10:12:02.034Z,20.40
2022-09-12T10:14:42.311Z,20.40
2022-09-12T10:17:33.832Z,20.50
2022-09-12T10:20:22.462Z,20.50
2022-09-12T10:22:48.368Z,20.40
2022-09-12T10:25:17.701Z,20.50
2022-09-12T10:27:44.323Z,20.50
2022-09-12T10:30:21.879Z,20.50
2022-09-12T10:32:53.977Z,20.60
2022-09-12T10:35:23.278Z,20.60
2022-09-12T10:38:05.919Z,20.60
2022-09-12T10:40:39.399Z,20.60
2022-09-12T10:43:24.339Z,20.60
2022-09-12T10:45:51.015Z,20.70
2022-09-12T10:48:32.011Z,20.70
2022-09-12T10:50:59.835Z,20.70
2022-09-12T10:53:44.479Z,20.70
2022-09-12T10:56:14.107Z,20.80
2022-09-12T10:59:20.297Z,20.80
2022-09-12T11:01:51.106Z,20.90
2022-09-12T11:04:28.901Z,20.80
2022-09-12T11:07:32.360Z,20.80
2022-09-12T11:10:37.332Z,20.80
2022-09-12T11:13:37.601Z,20.80
2022-09-12T11:16:30.424Z,20.80
2022-09-12T11:19:16.319Z,20.80
2022-09-12T11:22:05.408Z,20.90
2022-09-12T11:24:50.419Z,20.90
2022-09-12T11:27:41.629Z,20.90
2022-09-12T11:30:13.513Z,20.90
2022-09-12T11:32:50.691Z,20.80
2022-09-12T11:35:27.485Z,20.90
2022-09-12T11:38:24.235Z,21.00
2022-09-12T11:40:55.709Z,20.90
2022-09-12T11:43:25.126Z,20.90
2022-09-12T11:45:52.992Z,20.80
2022-09-12T11:48:48.760Z,20.90
2022-09-12T11:51:25.420Z,20.80
2022-09-12T11:54:04.202Z,21.00
2022-09-12T11:56:30.865Z,21.00
2022-09-12T11:59:04.646Z,21.00
2022-09-12T12:01:48.559Z,21.00
2022-09-12T12:04:20.525Z,21.00
2022-09-12T12:06:59.188Z,21.00
2022-09-12T12:09:25.746Z,21.00
2022-09-12T12:11:57.556Z,21.00
2022-09-12T12:14:31.829Z,21.10
2022-09-12T12:16:58.784Z,21.10
2022-09-12T12:19:34.762Z,21.10
2022-09-12T12:22:18.416Z,21.10
2022-09-12T12:25:12.665Z,21.10
2022-09-12T12:27:45.680Z,21.10
2022-09-12T12:30:53.533Z,21.20
2022-09-12T12:33:20.050Z,21.20
2022-09-12T12:36:03.264Z,21.20
2022-09-12T12:38:37.169Z,21.30
2022-09-12T12:41:19.141Z,21.30
2022-09-12T12:43:50.746Z,21.40
2022-09-12T12:46:22.491Z,21.30
2022-09-12T12:49:17.436Z,21.10
2022-09-12T12:51:54.799Z,21.20
2022-09-12T12:54:41.422Z,21.30
2022-09-12T12:57:21.592Z,21.40
2022-09-12T13:00:06.681Z,21.40
2022-09-12T13:02:40.948Z,21.40
2022-09-12T13:05:20.742Z,21.30
2022-09-12T13:07:52.996Z,21.50
2022-09-12T13:10:24.118Z,21.50
2022-09-12T13:12:51.805Z,21.50
2022-09-12T13:15:36.563Z,21.40
2022-09-12T13:18:11.185Z,21.30
2022-09-12T13:20:49.645Z,21.20
2022-09-12T13:23:31.664Z,21.30
2022-09-12T13:26:00.533Z,21.20
2022-09-12T13:28:29.390Z,21.20
2022-09-12T13:31:24.605Z,21.10
2022-09-12T13:33:57.817Z,21.30
2022-09-12T13:36:56.189Z,21.30
2022-09-12T13:39:47.524Z,21.40
2022-09-12T13:42:26.639Z,21.40
2022-09-12T13:44:58.387Z,21.60
2022-09-12T13:47:32.750Z,21.50
2022-09-12T13:50:01.172Z,21.40
2022-09-12T13:52:34.004Z,21.30
2022-09-12T13:55:05.020Z,21.30
2022-09-12T13:57:41.122Z,21.30
2022-09-12T14:00:13.032Z,21.40
2022-09-12T14:02:40.295Z,21.50
2022-09-12T14:05:25.851Z,21.40
2022-09-12T14:08:06.744Z,21.50
2022-09-12T14:10:35.832Z,21.50
2022-09-12T14:13:11.739Z,21.50
2022-09-12T14:15:39.332Z,21.40
2022-09-12T14:18:08.764Z,21.40
2022-09-12T14:20:39.333Z,21.40
2022-09-12T14:23:27.384Z,21.50
2022-09-12T14:25:56.216Z,21.50
2022-09-12T14:28:23.976Z,21.40
2022-09-12T14:31:02.920Z,21.50
2022-09-12T14:33:33.222Z,21.50
2022-09-12T14:36:20.635Z,21.60
2022-09-12T14:38:50.406Z,21.60
2022-09-12T14:41:43.817Z,21.60
2022-09-12T14:44:24.048Z,21.60
2022-09-12T14:46:51.520Z,21.50
2022-09-12T14:49:36.522Z,21.50
2022-09-12T14:52:06.487Z,21.50
2022-09-12T14:54:33.760Z,21.40
2022-09-12T14:57:03.014Z,21.40
2022-09-12T14:59:31.018Z,21.30
2022-09-12T15:02:22.756Z,21.40
2022-09-12T15:04:50.992Z,21.60
2022-09-12T15:07:36.737Z,21.60
2022-09-12T15:10:16.076Z,21.50
2022-09-12T15:12:42.666Z,21.50
2022-09-12T15:15:20.639Z,21.50
2022-09-12T15:17:48.222Z,21.40
2022-09-12T15:20:15.036Z,21.40
2022-09-12T15:22:42.240Z,21.30
2022-09-12T15:25:10.589Z,21.40
2022-09-12T15:27:40.688Z,21.30
2022-09-12T15:30:09.740Z,21.40
2022-09-12T15:32:37.061Z,21.30
2022-09-12T15:35:04.171Z,21.40
2022-09-12T15:37:31.014Z,21.40
2022-09-12T15:39:57.645Z,21.40
2022-09-12T15:42:29.060Z,21.50
2022-09-12T15:44:58.393Z,21.60
2022-09-12T15:47:27.249Z,21.60
2022-09-12T15:49:53.812Z,21.60
2022-09-12T15:52:20.588Z,21.60
2022-09-12T15:54:48.222Z,21.60
2022-09-12T15:57:14.766Z,21.60
2022-09-12T15:59:41.349Z,21.60
2022-09-12T16:02:09.956Z,21.60
2022-09-12T16:04:36.537Z,21.60
2022-09-12T16:07:03.999Z,21.50
2022-09-12T16:09:30.548Z,21.50
2022-09-12T16:11:57.168Z,21.50
2022-09-12T16:14:23.732Z,21.50
2022-09-12T16:16:54.528Z,21.50
2022-09-12T16:19:21.333Z,21.50
2022-09-12T16:21:48.874Z,21.50
2022-09-12T16:24:15.691Z,21.40
2022-09-12T16:26:42.440Z,21.40
2022-09-12T16:29:12.277Z,21.40
2022-09-12T16:31:39.971Z,21.40
2022-09-12T16:34:07.207Z,21.40
2022-09-12T16:36:34.119Z,21.40
2022-09-12T16:39:00.778Z,21.40
2022-09-12T16:41:27.437Z,21.40
2022-09-12T16:43:54.708Z,21.40
2022-09-12T16:46:24.282Z,21.40
2022-09-12T16:48:54.211Z,21.40
2022-09-12T16:51:23.756Z,21.40
2022-09-12T16:53:50.736Z,21.40
2022-09-12T16:56:17.917Z,21.40
2022-09-12T16:58:45.768Z,21.40
2022-09-12T17:01:17.984Z,21.40
2022-09-12T17:03:45.054Z,21.40
2022-09-12T17:06:14.473Z,21.40
2022-09-12T17:08:43.041Z,21.40
2022-09-12T17:11:12.041Z,21.40
2022-09-12T17:14:00.499Z,21.40
2022-09-12T17:16:27.260Z,21.40
2022-09-12T17:18:54.479Z,21.40
2022-09-12T17:21:22.229Z,21.40
2022-09-12T17:23:49.332Z,21.40
2022-09-12T17:26:16.440Z,21.40
2022-09-12T17:28:43.937Z,21.40
2022-09-12T17:31:12.647Z,21.40
2022-09-12T17:33:39.686Z,21.40
2022-09-12T17:36:11.929Z,21.30
2022-09-12T17:38:42.294Z,21.40
2022-09-12T17:41:14.322Z,21.40
2022-09-12T17:43:40.965Z,21.40
2022-09-12T17:46:08.253Z,21.40
2022-09-12T17:48:35.444Z,21.40
2022-09-12T17:51:13.648Z,21.40
2022-09-12T17:53:41.403Z,21.40
2022-09-12T17:56:08.452Z,21.30
2022-09-12T17:58:35.442Z,21.40
2022-09-12T18:01:31.437Z,21.40
2022-09-12T18:04:00.481Z,21.30
2022-09-12T18:06:28.335Z,21.30
2022-09-12T18:08:54.980Z,21.40
2022-09-12T18:11:21.708Z,21.30
2022-09-12T18:13:48.454Z,21.30
2022-09-12T18:16:15.229Z,21.30
2022-09-12T18:18:41.998Z,21.30
2022-09-12T18:21:13.120Z,21.30
2022-09-12T18:23:39.772Z,21.30
2022-09-12T18:26:09.071Z,21.30
2022-09-12T18:28:38.059Z,21.30
2022-09-12T18:31:11.521Z,21.40
2022-09-12T18:33:38.220Z,21.30
2022-09-12T18:36:06.172Z,21.30
2022-09-12T18:38:33.132Z,21.30
2022-09-12T18:41:11.055Z,21.30
2022-09-12T18:43:38.120Z,21.30
2022-09-12T18:46:16.766Z,21.30
2022-09-12T18:48:44.951Z,21.30
2022-09-12T18:51:20.063Z,21.30
2022-09-12T18:53:54.159Z,21.30
2022-09-12T18:56:26.370Z,21.30
2022-09-12T18:58:56.652Z,21.30
2022-09-12T19:01:31.773Z,21.30
2022-09-12T19:03:59.889Z,21.30
2022-09-12T19:06:29.155Z,21.20
2022-09-12T19:08:57.225Z,21.30
2022-09-12T19:11:25.266Z,21.30
2022-09-12T19:13:53.084Z,21.20
2022-09-12T19:16:22.126Z,21.20
2022-09-12T19:18:49.823Z,21.20
2022-09-12T19:21:24.733Z,21.20
2022-09-12T19:23:59.752Z,21.20
2022-09-12T19:26:30.052Z,21.20
2022-09-12T19:28:56.963Z,21.20
2022-09-12T19:31:24.500Z,21.20
2022-09-12T19:33:52.267Z,21.10
2022-09-12T19:36:43.750Z,21.20
2022-09-12T19:39:08.563Z,21.20
2022-09-12T19:41:35.259Z,21.10
2022-09-12T19:44:02.312Z,21.10
2022-09-12T19:46:28.912Z,21.10
2022-09-12T19:48:55.593Z,21.10
2022-09-12T19:51:23.980Z,21.10
2022-09-12T19:53:51.244Z,21.10
2022-09-12T19:56:21.609Z,21.10
2022-09-12T19:58:55.824Z,21.10
2022-09-12T20:01:27.871Z,21.00
2022-09-12T20:03:57.545Z,21.10
2022-09-12T20:06:27.689Z,21.00
2022-09-12T20:08:55.002Z,21.00
2022-09-12T20:11:26.240Z,21.00
2022-09-12T20:13:53.385Z,21.00
2022-09-12T20:16:27.685Z,21.00
2022-09-12T20:18:56.946Z,21.00
2022-09-12T20:21:25.602Z,21.00
2022-09-12T20:23:52.286Z,21.00
2022-09-12T20:26:20.147Z,21.00
2022-09-12T20:28:46.842Z,21.00
2022-09-12T20:31:15.346Z,21.00
2022-09-12T20:33:42.560Z,20.90
2022-09-12T20:36:15.006Z,21.00
2022-09-12T20:38:46.069Z,21.00
2022-09-12T20:41:12.625Z,20.90
2022-09-12T20:43:40.943Z,20.90
2022-09-12T20:46:09.786Z,20.90
2022-09-12T20:48:39.576Z,20.90
2022-09-12T20:51:07.149Z,20.90
2022-09-12T20:53:35.232Z,20.90
2022-09-12T20:56:03.584Z,20.90
2022-09-12T20:58:30.176Z,20.90
2022-09-12T21:00:57.137Z,20.80
2022-09-12T21:03:25.316Z,20.80
2022-09-12T21:05:51.937Z,20.80
2022-09-12T21:08:18.583Z,20.80
2022-09-12T21:10:45.200Z,20.80
2022-09-12T21:13:12.912Z,20.80
2022-09-12T21:15:40.687Z,20.80
2022-09-12T21:18:07.707Z,20.70
2022-09-12T21:20:34.364Z,20.70
2022-09-12T21:23:00.967Z,20.70
2022-09-12T21:25:28.991Z,20.70
2022-09-12T21:27:55.609Z,20.70
2022-09-12T21:30:25.042Z,20.70
2022-09-12T21:32:52.009Z,20.70
2022-09-12T21:35:18.811Z,20.70
2022-09-12T21:37:45.372Z,20.70
2022-09-12T21:40:11.990Z,20.70
2022-09-12T21:42:38.776Z,20.70
2022-09-12T21:45:06.164Z,20.70
2022-09-12T21:47:32.789Z,20.70
2022-09-12T21:49:59.425Z,20.70
2022-09-12T21:52:28.667Z,20.60
2022-09-12T21:54:56.365Z,20.70
2022-09-12T21:57:23.153Z,20.60
2022-09-12T21:59:49.955Z,20.70
2022-09-12T22:02:16.680Z,20.70
2022-09-12T22:04:43.380Z,20.70
2022-09-12T22:07:10.595Z,20.70
2022-09-12T22:09:37.309Z,20.70
2022-09-12T22:12:04.021Z,20.70
2022-09-12T22:14:30.600Z,20.70
2022-09-12T22:16:57.136Z,20.70
2022-09-12T22:19:23.872Z,20.70
2022-09-12T22:22:09.138Z,20.70
2022-09-12T22:24:35.769Z,20.60
2022-09-12T22:27:05.232Z,20.60
2022-09-12T22:29:32.234Z,20.60
2022-09-12T22:31:59.680Z,20.60
2022-09-12T22:34:27.373Z,20.60
2022-09-12T22:36:54.036Z,20.60
2022-09-12T22:39:20.820Z,20.60
2022-09-12T22:41:47.939Z,20.60
2022-09-12T22:44:14.707Z,20.60
2022-09-12T22:46:41.340Z,20.60
2022-09-12T22:49:08.053Z,20.60
2022-09-12T22:51:35.211Z,20.60
2022-09-12T22:54:02.067Z,20.60
2022-09-12T22:56:28.730Z,20.60
2022-09-12T22:58:55.315Z,20.60
2022-09-12T23:01:21.952Z,20.60
2022-09-12T23:03:48.725Z,20.50
2022-09-12T23:06:15.445Z,20.60
2022-09-12T23:08:42.840Z,20.50
2022-09-12T23:11:12.779Z,20.60
2022-09-12T23:13:42.313Z,20.50
2022-09-12T23:16:14.274Z,20.60
2022-09-12T23:18:40.933Z,20.60
2022-09-12T23:21:09.632Z,20.60
2022-09-12T23:23:36.426Z,20.50
2022-09-12T23:26:06.068Z,20.60
2022-09-12T23:28:33.150Z,20.50
2022-09-12T23:31:00.214Z,20.50
2022-09-12T23:33:31.376Z,20.50
2022-09-12T23:36:12.540Z,20.50
2022-09-12T23:38:39.145Z,20.50
2022-09-12T23:41:06.495Z,20.50
2022-09-12T23:43:33.071Z,20.50
2022-09-12T23:46:00.418Z,20.50
2022-09-12T23:48:27.765Z,20.50
2022-09-12T23:50:54.956Z,20.40
2022-09-12T23:53:22.354Z,20.50
2022-09-12T23:55:49.766Z,20.50
2022-09-12T23:58:16.854Z,20.50
